sensor_id;sensor_type;location;lat;lon;timestamp;temperature;humidity
20658;DHT22;10488;50.846;4.078;2023-07-20T00:02:23;17.20;99.90
20658;DHT22;10488;50.846;4.078;2023-07-20T00:04:49;17.20;99.90
20658;DHT22;10488;50.846;4.078;2023-07-20T00:07:15;17.40;99.90
20658;DHT22;10488;50.846;4.078;2023-07-20T00:09:40;17.50;99.90
20658;DHT22;10488;50.846;4.078;2023-07-20T00:12:06;17.60;99.90
20658;DHT22;10488;50.846;4.078;2023-07-20T00:14:32;17.60;99.90
20658;DHT22;10488;50.846;4.078;2023-07-20T00:16:58;17.70;99.90
20658;DHT22;10488;50.846;4.078;2023-07-20T00:19:27;17.70;99.90
20658;DHT22;10488;50.846;4.078;2023-07-20T00:21:54;17.70;99.90
20658;DHT22;10488;50.846;4.078;2023-07-20T00:24:20;17.70;99.90
20658;DHT22;10488;50.846;4.078;2023-07-20T00:26:46;17.50;99.90
20658;DHT22;10488;50.846;4.078;2023-07-20T00:29:12;17.50;99.90
20658;DHT22;10488;50.846;4.078;2023-07-20T00:31:37;17.50;99.90
20658;DHT22;10488;50.846;4.078;2023-07-20T00:34:03;17.40;99.90
20658;DHT22;10488;50.846;4.078;2023-07-20T00:36:29;17.40;99.90
20658;DHT22;10488;50.846;4.078;2023-07-20T00:38:55;17.40;99.90
20658;DHT22;10488;50.846;4.078;2023-07-20T00:41:21;17.40;99.90
20658;DHT22;10488;50.846;4.078;2023-07-20T00:43:46;17.50;99.90
20658;DHT22;10488;50.846;4.078;2023-07-20T00:46:13;17.50;99.90
20658;DHT22;10488;50.846;4.078;2023-07-20T00:48:40;17.60;99.90
20658;DHT22;10488;50.846;4.078;2023-07-20T00:51:06;17.50;99.90
20658;DHT22;10488;50.846;4.078;2023-07-20T00:53:32;17.50;99.90
20658;DHT22;10488;50.846;4.078;2023-07-20T00:55:58;17.50;99.90
20658;DHT22;10488;50.846;4.078;2023-07-20T00:58:24;17.60;99.90
20658;DHT22;10488;50.846;4.078;2023-07-20T01:00:50;17.40;99.90
20658;DHT22;10488;50.846;4.078;2023-07-20T01:03:16;17.30;99.90
20658;DHT22;10488;50.846;4.078;2023-07-20T01:13:50;17.00;99.90
20658;DHT22;10488;50.846;4.078;2023-07-20T01:16:16;17.10;99.90
20658;DHT22;10488;50.846;4.078;2023-07-20T01:18:41;17.00;99.90
20658;DHT22;10488;50.846;4.078;2023-07-20T01:21:18;17.10;99.90
20658;DHT22;10488;50.846;4.078;2023-07-20T01:24:05;17.10;99.90
20658;DHT22;10488;50.846;4.078;2023-07-20T01:27:07;17.10;99.90
20658;DHT22;10488;50.846;4.078;2023-07-20T01:32:23;17.00;99.90
20658;DHT22;10488;50.846;4.078;2023-07-20T01:34:52;17.00;99.90
20658;DHT22;10488;50.846;4.078;2023-07-20T01:37:20;17.00;99.90
20658;DHT22;10488;50.846;4.078;2023-07-20T01:39:51;17.00;99.90
20658;DHT22;10488;50.846;4.078;2023-07-20T01:42:21;16.90;99.90
20658;DHT22;10488;50.846;4.078;2023-07-20T01:44:50;16.90;99.90
20658;DHT22;10488;50.846;4.078;2023-07-20T01:47:16;16.90;99.90
20658;DHT22;10488;50.846;4.078;2023-07-20T01:49:42;16.80;99.90
20658;DHT22;10488;50.846;4.078;2023-07-20T01:52:08;16.70;99.90
20658;DHT22;10488;50.846;4.078;2023-07-20T01:54:34;16.80;99.90
20658;DHT22;10488;50.846;4.078;2023-07-20T01:56:59;16.80;99.90
20658;DHT22;10488;50.846;4.078;2023-07-20T01:59:25;16.80;99.90
20658;DHT22;10488;50.846;4.078;2023-07-20T02:01:51;16.90;99.90
20658;DHT22;10488;50.846;4.078;2023-07-20T02:04:16;16.80;99.90
20658;DHT22;10488;50.846;4.078;2023-07-20T02:06:42;16.70;99.90
20658;DHT22;10488;50.846;4.078;2023-07-20T02:09:08;16.80;99.90
20658;DHT22;10488;50.846;4.078;2023-07-20T02:11:33;16.80;99.90
20658;DHT22;10488;50.846;4.078;2023-07-20T02:13:59;16.80;99.90
20658;DHT22;10488;50.846;4.078;2023-07-20T02:16:25;16.60;99.90
20658;DHT22;10488;50.846;4.078;2023-07-20T02:18:50;16.70;99.90
20658;DHT22;10488;50.846;4.078;2023-07-20T02:21:16;16.60;99.90
20658;DHT22;10488;50.846;4.078;2023-07-20T02:23:41;16.50;99.90
20658;DHT22;10488;50.846;4.078;2023-07-20T02:26:07;16.60;99.90
20658;DHT22;10488;50.846;4.078;2023-07-20T02:28:33;16.50;99.90
20658;DHT22;10488;50.846;4.078;2023-07-20T02:30:58;16.60;99.90
20658;DHT22;10488;50.846;4.078;2023-07-20T02:33:26;16.60;99.90
20658;DHT22;10488;50.846;4.078;2023-07-20T02:35:52;16.60;99.90
20658;DHT22;10488;50.846;4.078;2023-07-20T02:38:17;16.60;99.90
20658;DHT22;10488;50.846;4.078;2023-07-20T02:40:43;16.60;99.90
20658;DHT22;10488;50.846;4.078;2023-07-20T02:43:09;16.60;99.90
20658;DHT22;10488;50.846;4.078;2023-07-20T02:45:35;16.60;99.90
20658;DHT22;10488;50.846;4.078;2023-07-20T02:48:01;16.60;99.90
20658;DHT22;10488;50.846;4.078;2023-07-20T02:50:28;16.60;99.90
20658;DHT22;10488;50.846;4.078;2023-07-20T02:52:53;16.50;99.90
20658;DHT22;10488;50.846;4.078;2023-07-20T02:55:19;16.40;99.90
20658;DHT22;10488;50.846;4.078;2023-07-20T02:57:45;16.40;99.90
20658;DHT22;10488;50.846;4.078;2023-07-20T03:00:11;16.20;99.90
20658;DHT22;10488;50.846;4.078;2023-07-20T03:02:40;16.10;99.90
20658;DHT22;10488;50.846;4.078;2023-07-20T03:05:06;16.10;99.90
20658;DHT22;10488;50.846;4.078;2023-07-20T03:07:32;16.10;99.90
20658;DHT22;10488;50.846;4.078;2023-07-20T03:09:58;16.10;99.90
20658;DHT22;10488;50.846;4.078;2023-07-20T03:12:24;16.10;99.90
20658;DHT22;10488;50.846;4.078;2023-07-20T03:14:50;16.20;99.90
20658;DHT22;10488;50.846;4.078;2023-07-20T03:17:15;16.30;99.90
20658;DHT22;10488;50.846;4.078;2023-07-20T03:19:41;16.40;99.90
20658;DHT22;10488;50.846;4.078;2023-07-20T03:22:08;16.50;99.90
20658;DHT22;10488;50.846;4.078;2023-07-20T03:24:33;16.60;99.90
20658;DHT22;10488;50.846;4.078;2023-07-20T03:26:59;16.60;99.90
20658;DHT22;10488;50.846;4.078;2023-07-20T03:29:25;16.50;99.90
20658;DHT22;10488;50.846;4.078;2023-07-20T03:31:50;16.60;99.90
20658;DHT22;10488;50.846;4.078;2023-07-20T03:34:16;16.70;99.90
20658;DHT22;10488;50.846;4.078;2023-07-20T03:36:42;16.70;99.90
20658;DHT22;10488;50.846;4.078;2023-07-20T03:39:07;16.70;99.90
20658;DHT22;10488;50.846;4.078;2023-07-20T03:41:33;16.80;99.90
20658;DHT22;10488;50.846;4.078;2023-07-20T03:43:59;16.90;99.90
20658;DHT22;10488;50.846;4.078;2023-07-20T03:46:24;17.00;99.90
20658;DHT22;10488;50.846;4.078;2023-07-20T03:48:50;16.90;99.90
20658;DHT22;10488;50.846;4.078;2023-07-20T03:51:16;16.90;99.90
20658;DHT22;10488;50.846;4.078;2023-07-20T03:53:41;16.90;99.90
20658;DHT22;10488;50.846;4.078;2023-07-20T03:56:07;16.80;99.90
20658;DHT22;10488;50.846;4.078;2023-07-20T03:58:33;16.80;99.90
20658;DHT22;10488;50.846;4.078;2023-07-20T04:00:59;16.80;99.90
20658;DHT22;10488;50.846;4.078;2023-07-20T04:03:25;16.70;99.90
20658;DHT22;10488;50.846;4.078;2023-07-20T04:05:54;16.80;99.90
20658;DHT22;10488;50.846;4.078;2023-07-20T04:08:22;16.80;99.90
20658;DHT22;10488;50.846;4.078;2023-07-20T04:10:48;16.80;99.90
20658;DHT22;10488;50.846;4.078;2023-07-20T04:13:13;16.80;99.90
20658;DHT22;10488;50.846;4.078;2023-07-20T04:15:39;16.90;99.90
20658;DHT22;10488;50.846;4.078;2023-07-20T04:18:05;17.00;99.90
20658;DHT22;10488;50.846;4.078;2023-07-20T04:20:30;17.00;99.90
20658;DHT22;10488;50.846;4.078;2023-07-20T04:22:56;17.00;99.90
20658;DHT22;10488;50.846;4.078;2023-07-20T04:25:22;17.00;99.90
20658;DHT22;10488;50.846;4.078;2023-07-20T04:27:47;17.10;99.90
20658;DHT22;10488;50.846;4.078;2023-07-20T04:30:13;17.10;99.90
20658;DHT22;10488;50.846;4.078;2023-07-20T04:32:41;17.10;99.90
20658;DHT22;10488;50.846;4.078;2023-07-20T04:35:09;17.00;99.90
20658;DHT22;10488;50.846;4.078;2023-07-20T04:37:35;17.00;99.90
20658;DHT22;10488;50.846;4.078;2023-07-20T04:40:01;16.90;99.90
20658;DHT22;10488;50.846;4.078;2023-07-20T04:42:26;16.60;99.90
20658;DHT22;10488;50.846;4.078;2023-07-20T04:44:52;16.80;99.90
20658;DHT22;10488;50.846;4.078;2023-07-20T04:47:17;17.00;99.90
20658;DHT22;10488;50.846;4.078;2023-07-20T04:49:43;17.00;99.90
20658;DHT22;10488;50.846;4.078;2023-07-20T04:52:09;17.10;99.90
20658;DHT22;10488;50.846;4.078;2023-07-20T04:54:34;17.10;99.90
20658;DHT22;10488;50.846;4.078;2023-07-20T04:57:00;17.10;99.90
20658;DHT22;10488;50.846;4.078;2023-07-20T04:59:26;17.10;99.90
20658;DHT22;10488;50.846;4.078;2023-07-20T05:01:52;17.00;99.90
20658;DHT22;10488;50.846;4.078;2023-07-20T05:04:18;17.00;99.90
20658;DHT22;10488;50.846;4.078;2023-07-20T05:06:43;16.90;99.90
20658;DHT22;10488;50.846;4.078;2023-07-20T05:09:09;16.90;99.90
20658;DHT22;10488;50.846;4.078;2023-07-20T05:11:35;17.10;99.90
20658;DHT22;10488;50.846;4.078;2023-07-20T05:14:01;17.00;99.90
20658;DHT22;10488;50.846;4.078;2023-07-20T05:16:26;16.90;99.90
20658;DHT22;10488;50.846;4.078;2023-07-20T05:18:52;16.80;99.90
20658;DHT22;10488;50.846;4.078;2023-07-20T05:21:18;17.00;99.90
20658;DHT22;10488;50.846;4.078;2023-07-20T05:23:43;17.10;99.90
20658;DHT22;10488;50.846;4.078;2023-07-20T05:26:12;16.80;99.90
20658;DHT22;10488;50.846;4.078;2023-07-20T05:28:38;17.10;99.90
20658;DHT22;10488;50.846;4.078;2023-07-20T05:31:04;17.20;99.90
20658;DHT22;10488;50.846;4.078;2023-07-20T05:33:29;17.30;99.90
20658;DHT22;10488;50.846;4.078;2023-07-20T05:35:55;17.10;99.90
20658;DHT22;10488;50.846;4.078;2023-07-20T05:38:21;17.30;99.90
20658;DHT22;10488;50.846;4.078;2023-07-20T05:40:47;17.40;99.90
20658;DHT22;10488;50.846;4.078;2023-07-20T05:43:13;17.30;99.90
20658;DHT22;10488;50.846;4.078;2023-07-20T05:45:43;17.50;99.90
20658;DHT22;10488;50.846;4.078;2023-07-20T05:48:09;17.60;99.90
20658;DHT22;10488;50.846;4.078;2023-07-20T05:50:42;17.70;99.90
20658;DHT22;10488;50.846;4.078;2023-07-20T05:53:09;17.10;99.90
20658;DHT22;10488;50.846;4.078;2023-07-20T05:55:34;17.10;99.90
20658;DHT22;10488;50.846;4.078;2023-07-20T05:58:00;17.10;99.90
20658;DHT22;10488;50.846;4.078;2023-07-20T06:00:26;17.30;99.90
20658;DHT22;10488;50.846;4.078;2023-07-20T06:02:53;17.70;99.90
20658;DHT22;10488;50.846;4.078;2023-07-20T06:05:19;17.20;99.90
20658;DHT22;10488;50.846;4.078;2023-07-20T06:07:46;17.40;99.90
20658;DHT22;10488;50.846;4.078;2023-07-20T06:10:12;17.20;99.90
20658;DHT22;10488;50.846;4.078;2023-07-20T06:12:37;17.50;99.90
20658;DHT22;10488;50.846;4.078;2023-07-20T06:15:04;17.80;99.90
20658;DHT22;10488;50.846;4.078;2023-07-20T06:17:30;18.00;99.90
20658;DHT22;10488;50.846;4.078;2023-07-20T06:19:56;17.90;99.90
20658;DHT22;10488;50.846;4.078;2023-07-20T06:22:22;17.80;99.90
20658;DHT22;10488;50.846;4.078;2023-07-20T06:24:48;17.80;99.90
20658;DHT22;10488;50.846;4.078;2023-07-20T06:27:13;17.80;99.90
20658;DHT22;10488;50.846;4.078;2023-07-20T06:29:39;18.00;99.90
20658;DHT22;10488;50.846;4.078;2023-07-20T06:32:05;18.60;99.90
20658;DHT22;10488;50.846;4.078;2023-07-20T06:34:32;18.70;99.90
20658;DHT22;10488;50.846;4.078;2023-07-20T06:37:03;18.80;99.90
20658;DHT22;10488;50.846;4.078;2023-07-20T06:39:29;18.80;99.90
20658;DHT22;10488;50.846;4.078;2023-07-20T06:41:55;18.80;99.90
20658;DHT22;10488;50.846;4.078;2023-07-20T06:44:21;18.60;99.90
20658;DHT22;10488;50.846;4.078;2023-07-20T06:46:46;18.70;99.90
20658;DHT22;10488;50.846;4.078;2023-07-20T06:49:26;19.00;99.90
20658;DHT22;10488;50.846;4.078;2023-07-20T06:51:52;19.10;99.90
20658;DHT22;10488;50.846;4.078;2023-07-20T06:54:18;19.10;99.90
20658;DHT22;10488;50.846;4.078;2023-07-20T06:56:44;19.70;99.90
20658;DHT22;10488;50.846;4.078;2023-07-20T06:59:10;20.10;99.90
20658;DHT22;10488;50.846;4.078;2023-07-20T07:01:35;20.80;99.90
20658;DHT22;10488;50.846;4.078;2023-07-20T07:04:01;20.90;99.90
20658;DHT22;10488;50.846;4.078;2023-07-20T07:06:27;20.90;99.90
20658;DHT22;10488;50.846;4.078;2023-07-20T07:08:53;21.10;99.90
20658;DHT22;10488;50.846;4.078;2023-07-20T07:11:19;21.00;99.90
20658;DHT22;10488;50.846;4.078;2023-07-20T07:13:45;20.90;99.90
20658;DHT22;10488;50.846;4.078;2023-07-20T07:16:14;20.20;99.90
20658;DHT22;10488;50.846;4.078;2023-07-20T07:18:44;20.20;99.90
20658;DHT22;10488;50.846;4.078;2023-07-20T07:21:10;20.80;99.90
20658;DHT22;10488;50.846;4.078;2023-07-20T07:23:37;21.00;99.90
20658;DHT22;10488;50.846;4.078;2023-07-20T07:26:04;21.40;99.90
20658;DHT22;10488;50.846;4.078;2023-07-20T07:28:29;21.50;99.90
20658;DHT22;10488;50.846;4.078;2023-07-20T07:30:55;21.60;99.90
20658;DHT22;10488;50.846;4.078;2023-07-20T07:33:22;21.60;99.90
20658;DHT22;10488;50.846;4.078;2023-07-20T07:35:49;21.60;99.90
20658;DHT22;10488;50.846;4.078;2023-07-20T07:38:14;21.70;99.90
20658;DHT22;10488;50.846;4.078;2023-07-20T07:40:40;21.30;99.90
20658;DHT22;10488;50.846;4.078;2023-07-20T07:43:05;21.30;99.90
20658;DHT22;10488;50.846;4.078;2023-07-20T07:45:35;21.80;99.90
20658;DHT22;10488;50.846;4.078;2023-07-20T07:48:04;23.00;99.90
20658;DHT22;10488;50.846;4.078;2023-07-20T07:50:30;23.30;99.90
20658;DHT22;10488;50.846;4.078;2023-07-20T07:52:56;23.80;99.90
20658;DHT22;10488;50.846;4.078;2023-07-20T07:55:21;24.80;99.90
20658;DHT22;10488;50.846;4.078;2023-07-20T07:57:47;25.50;99.90
20658;DHT22;10488;50.846;4.078;2023-07-20T08:00:13;24.80;99.90
20658;DHT22;10488;50.846;4.078;2023-07-20T08:02:43;24.10;99.90
20658;DHT22;10488;50.846;4.078;2023-07-20T08:05:09;23.70;99.90
20658;DHT22;10488;50.846;4.078;2023-07-20T08:07:35;23.40;99.90
20658;DHT22;10488;50.846;4.078;2023-07-20T08:10:01;23.30;99.90
20658;DHT22;10488;50.846;4.078;2023-07-20T08:12:27;22.90;99.90
20658;DHT22;10488;50.846;4.078;2023-07-20T08:14:52;21.80;99.90
20658;DHT22;10488;50.846;4.078;2023-07-20T08:17:18;21.70;99.90
20658;DHT22;10488;50.846;4.078;2023-07-20T08:19:45;21.70;99.90
20658;DHT22;10488;50.846;4.078;2023-07-20T08:22:10;22.70;99.90
20658;DHT22;10488;50.846;4.078;2023-07-20T08:24:41;23.10;99.90
20658;DHT22;10488;50.846;4.078;2023-07-20T08:27:07;23.40;99.90
20658;DHT22;10488;50.846;4.078;2023-07-20T08:29:34;23.40;99.90
20658;DHT22;10488;50.846;4.078;2023-07-20T08:31:59;23.30;99.90
20658;DHT22;10488;50.846;4.078;2023-07-20T08:34:25;23.40;99.90
20658;DHT22;10488;50.846;4.078;2023-07-20T08:36:51;23.30;99.90
20658;DHT22;10488;50.846;4.078;2023-07-20T08:39:16;22.90;99.90
20658;DHT22;10488;50.846;4.078;2023-07-20T08:41:46;22.10;99.90
20658;DHT22;10488;50.846;4.078;2023-07-20T08:44:12;21.20;99.90
20658;DHT22;10488;50.846;4.078;2023-07-20T08:46:38;21.50;99.90
20658;DHT22;10488;50.846;4.078;2023-07-20T08:49:06;22.30;99.90
20658;DHT22;10488;50.846;4.078;2023-07-20T08:51:33;22.40;99.90
20658;DHT22;10488;50.846;4.078;2023-07-20T08:53:59;23.40;99.90
20658;DHT22;10488;50.846;4.078;2023-07-20T08:56:25;23.00;99.90
20658;DHT22;10488;50.846;4.078;2023-07-20T08:58:55;23.80;99.90
20658;DHT22;10488;50.846;4.078;2023-07-20T09:01:21;24.10;99.90
20658;DHT22;10488;50.846;4.078;2023-07-20T09:03:48;24.30;99.90
20658;DHT22;10488;50.846;4.078;2023-07-20T09:06:14;23.50;99.90
20658;DHT22;10488;50.846;4.078;2023-07-20T09:08:40;24.40;99.90
20658;DHT22;10488;50.846;4.078;2023-07-20T09:11:07;24.40;99.90
20658;DHT22;10488;50.846;4.078;2023-07-20T09:13:38;23.90;99.90
20658;DHT22;10488;50.846;4.078;2023-07-20T09:16:04;24.70;99.90
20658;DHT22;10488;50.846;4.078;2023-07-20T09:18:31;24.00;99.90
20658;DHT22;10488;50.846;4.078;2023-07-20T09:20:58;24.40;99.90
20658;DHT22;10488;50.846;4.078;2023-07-20T09:23:33;24.80;99.90
20658;DHT22;10488;50.846;4.078;2023-07-20T09:26:00;25.30;99.90
20658;DHT22;10488;50.846;4.078;2023-07-20T09:28:25;26.00;99.90
20658;DHT22;10488;50.846;4.078;2023-07-20T09:30:51;25.80;99.90
20658;DHT22;10488;50.846;4.078;2023-07-20T09:33:22;25.50;99.90
20658;DHT22;10488;50.846;4.078;2023-07-20T09:35:48;25.70;99.90
20658;DHT22;10488;50.846;4.078;2023-07-20T09:38:15;25.80;99.90
20658;DHT22;10488;50.846;4.078;2023-07-20T09:40:41;26.20;99.90
20658;DHT22;10488;50.846;4.078;2023-07-20T09:43:10;26.90;99.90
20658;DHT22;10488;50.846;4.078;2023-07-20T09:45:45;27.00;99.90
20658;DHT22;10488;50.846;4.078;2023-07-20T09:48:11;26.00;99.90
20658;DHT22;10488;50.846;4.078;2023-07-20T09:50:48;25.60;99.90
20658;DHT22;10488;50.846;4.078;2023-07-20T09:53:15;25.80;99.90
20658;DHT22;10488;50.846;4.078;2023-07-20T09:55:47;26.20;99.90
20658;DHT22;10488;50.846;4.078;2023-07-20T09:58:13;26.40;99.90
20658;DHT22;10488;50.846;4.078;2023-07-20T10:00:41;26.20;99.90
20658;DHT22;10488;50.846;4.078;2023-07-20T10:03:16;26.00;99.90
20658;DHT22;10488;50.846;4.078;2023-07-20T10:05:47;25.20;99.90
20658;DHT22;10488;50.846;4.078;2023-07-20T10:08:18;24.10;99.90
20658;DHT22;10488;50.846;4.078;2023-07-20T10:10:44;23.80;99.90
20658;DHT22;10488;50.846;4.078;2023-07-20T10:13:18;24.30;99.90
20658;DHT22;10488;50.846;4.078;2023-07-20T10:15:58;24.50;99.90
20658;DHT22;10488;50.846;4.078;2023-07-20T10:21:19;23.30;99.90
20658;DHT22;10488;50.846;4.078;2023-07-20T10:23:48;23.00;99.90
20658;DHT22;10488;50.846;4.078;2023-07-20T10:26:14;23.70;99.90
20658;DHT22;10488;50.846;4.078;2023-07-20T10:28:40;24.30;99.90
20658;DHT22;10488;50.846;4.078;2023-07-20T10:31:09;24.40;99.90
20658;DHT22;10488;50.846;4.078;2023-07-20T10:33:37;25.00;99.90
20658;DHT22;10488;50.846;4.078;2023-07-20T10:36:04;25.50;99.90
20658;DHT22;10488;50.846;4.078;2023-07-20T10:43:48;24.80;99.90
20658;DHT22;10488;50.846;4.078;2023-07-20T10:46:14;24.60;99.90
20658;DHT22;10488;50.846;4.078;2023-07-20T10:48:59;24.50;99.90
20658;DHT22;10488;50.846;4.078;2023-07-20T10:51:26;24.80;99.90
20658;DHT22;10488;50.846;4.078;2023-07-20T10:53:51;24.40;99.90
20658;DHT22;10488;50.846;4.078;2023-07-20T10:56:23;24.40;99.90
20658;DHT22;10488;50.846;4.078;2023-07-20T10:58:49;24.70;99.90
20658;DHT22;10488;50.846;4.078;2023-07-20T11:01:16;24.60;99.90
20658;DHT22;10488;50.846;4.078;2023-07-20T11:03:43;25.00;99.90
20658;DHT22;10488;50.846;4.078;2023-07-20T11:09:02;25.20;99.90
20658;DHT22;10488;50.846;4.078;2023-07-20T11:11:30;25.40;99.90
20658;DHT22;10488;50.846;4.078;2023-07-20T11:14:01;25.40;99.90
20658;DHT22;10488;50.846;4.078;2023-07-20T11:16:45;25.00;99.90
20658;DHT22;10488;50.846;4.078;2023-07-20T11:19:22;24.80;99.90
20658;DHT22;10488;50.846;4.078;2023-07-20T11:21:58;24.80;99.90
20658;DHT22;10488;50.846;4.078;2023-07-20T11:24:24;24.90;99.90
20658;DHT22;10488;50.846;4.078;2023-07-20T11:26:51;24.00;99.90
20658;DHT22;10488;50.846;4.078;2023-07-20T11:29:19;24.10;99.90
20658;DHT22;10488;50.846;4.078;2023-07-20T11:31:46;24.40;99.90
20658;DHT22;10488;50.846;4.078;2023-07-20T11:34:14;24.50;99.90
20658;DHT22;10488;50.846;4.078;2023-07-20T11:36:41;24.30;99.90
20658;DHT22;10488;50.846;4.078;2023-07-20T11:39:11;24.00;99.90
20658;DHT22;10488;50.846;4.078;2023-07-20T11:41:38;24.50;99.90
20658;DHT22;10488;50.846;4.078;2023-07-20T11:44:06;25.00;99.90
20658;DHT22;10488;50.846;4.078;2023-07-20T11:46:33;23.90;99.90
20658;DHT22;10488;50.846;4.078;2023-07-20T11:49:00;23.70;99.90
20658;DHT22;10488;50.846;4.078;2023-07-20T11:51:29;23.60;99.90
20658;DHT22;10488;50.846;4.078;2023-07-20T11:53:56;23.20;99.90
20658;DHT22;10488;50.846;4.078;2023-07-20T11:56:24;22.60;99.90
20658;DHT22;10488;50.846;4.078;2023-07-20T11:58:49;22.30;99.90
20658;DHT22;10488;50.846;4.078;2023-07-20T12:01:16;22.40;99.90
20658;DHT22;10488;50.846;4.078;2023-07-20T12:03:43;22.00;99.90
20658;DHT22;10488;50.846;4.078;2023-07-20T12:06:10;22.00;99.90
20658;DHT22;10488;50.846;4.078;2023-07-20T12:08:42;21.80;99.90
20658;DHT22;10488;50.846;4.078;2023-07-20T12:11:09;21.60;99.90
20658;DHT22;10488;50.846;4.078;2023-07-20T12:13:44;21.30;99.90
20658;DHT22;10488;50.846;4.078;2023-07-20T12:16:14;21.30;99.90
20658;DHT22;10488;50.846;4.078;2023-07-20T12:18:43;21.50;99.90
20658;DHT22;10488;50.846;4.078;2023-07-20T12:21:10;21.30;99.90
20658;DHT22;10488;50.846;4.078;2023-07-20T12:23:40;21.10;99.90
20658;DHT22;10488;50.846;4.078;2023-07-20T12:26:10;20.90;99.90
20658;DHT22;10488;50.846;4.078;2023-07-20T12:28:39;20.80;99.90
20658;DHT22;10488;50.846;4.078;2023-07-20T12:31:07;20.80;99.90
20658;DHT22;10488;50.846;4.078;2023-07-20T12:33:33;20.80;99.90
20658;DHT22;10488;50.846;4.078;2023-07-20T12:36:00;21.10;99.90
20658;DHT22;10488;50.846;4.078;2023-07-20T12:38:26;21.30;99.90
20658;DHT22;10488;50.846;4.078;2023-07-20T12:40:53;21.80;99.90
20658;DHT22;10488;50.846;4.078;2023-07-20T12:43:21;21.90;99.90
20658;DHT22;10488;50.846;4.078;2023-07-20T12:45:46;21.60;99.90
20658;DHT22;10488;50.846;4.078;2023-07-20T12:48:12;21.20;99.90
20658;DHT22;10488;50.846;4.078;2023-07-20T12:50:38;21.50;99.90
20658;DHT22;10488;50.846;4.078;2023-07-20T12:53:03;21.70;99.90
20658;DHT22;10488;50.846;4.078;2023-07-20T12:55:29;21.90;99.90
20658;DHT22;10488;50.846;4.078;2023-07-20T12:57:55;21.60;99.90
20658;DHT22;10488;50.846;4.078;2023-07-20T13:00:21;21.80;99.90
20658;DHT22;10488;50.846;4.078;2023-07-20T13:02:50;21.10;99.90
20658;DHT22;10488;50.846;4.078;2023-07-20T13:05:16;20.60;99.90
20658;DHT22;10488;50.846;4.078;2023-07-20T13:07:41;20.20;99.90
20658;DHT22;10488;50.846;4.078;2023-07-20T13:10:08;19.90;99.90
20658;DHT22;10488;50.846;4.078;2023-07-20T13:12:35;19.50;99.90
20658;DHT22;10488;50.846;4.078;2023-07-20T13:15:05;19.70;99.90
20658;DHT22;10488;50.846;4.078;2023-07-20T13:17:32;19.80;99.90
20658;DHT22;10488;50.846;4.078;2023-07-20T13:19:58;19.50;99.90
20658;DHT22;10488;50.846;4.078;2023-07-20T13:22:24;19.20;99.90
20658;DHT22;10488;50.846;4.078;2023-07-20T13:24:50;19.30;99.90
20658;DHT22;10488;50.846;4.078;2023-07-20T13:27:19;19.70;99.90
20658;DHT22;10488;50.846;4.078;2023-07-20T13:29:45;20.30;99.90
20658;DHT22;10488;50.846;4.078;2023-07-20T13:32:13;20.20;99.90
20658;DHT22;10488;50.846;4.078;2023-07-20T13:34:39;20.00;99.90
20658;DHT22;10488;50.846;4.078;2023-07-20T13:37:05;19.90;99.90
20658;DHT22;10488;50.846;4.078;2023-07-20T13:39:31;19.80;99.90
20658;DHT22;10488;50.846;4.078;2023-07-20T13:41:57;19.80;99.90
20658;DHT22;10488;50.846;4.078;2023-07-20T13:44:22;20.10;99.90
20658;DHT22;10488;50.846;4.078;2023-07-20T13:46:49;20.70;99.90
20658;DHT22;10488;50.846;4.078;2023-07-20T13:49:14;21.10;99.90
20658;DHT22;10488;50.846;4.078;2023-07-20T13:51:43;21.20;99.90
20658;DHT22;10488;50.846;4.078;2023-07-20T13:54:09;21.00;99.90
20658;DHT22;10488;50.846;4.078;2023-07-20T13:56:35;21.40;99.90
20658;DHT22;10488;50.846;4.078;2023-07-20T13:59:01;21.40;99.90
20658;DHT22;10488;50.846;4.078;2023-07-20T14:01:26;21.40;99.90
20658;DHT22;10488;50.846;4.078;2023-07-20T14:03:55;21.50;99.90
20658;DHT22;10488;50.846;4.078;2023-07-20T14:06:21;22.00;99.90
20658;DHT22;10488;50.846;4.078;2023-07-20T14:08:46;22.10;99.90
20658;DHT22;10488;50.846;4.078;2023-07-20T14:11:14;22.10;99.90
20658;DHT22;10488;50.846;4.078;2023-07-20T14:13:40;22.30;99.90
20658;DHT22;10488;50.846;4.078;2023-07-20T14:16:05;22.20;99.90
20658;DHT22;10488;50.846;4.078;2023-07-20T14:18:31;22.50;99.90
20658;DHT22;10488;50.846;4.078;2023-07-20T14:20:57;22.70;99.90
20658;DHT22;10488;50.846;4.078;2023-07-20T14:23:22;22.30;99.90
20658;DHT22;10488;50.846;4.078;2023-07-20T14:25:48;22.20;99.90
20658;DHT22;10488;50.846;4.078;2023-07-20T14:28:14;22.50;99.90
20658;DHT22;10488;50.846;4.078;2023-07-20T14:30:41;22.40;99.90
20658;DHT22;10488;50.846;4.078;2023-07-20T14:33:06;22.00;99.90
20658;DHT22;10488;50.846;4.078;2023-07-20T14:35:33;22.50;99.90
20658;DHT22;10488;50.846;4.078;2023-07-20T14:37:59;22.50;99.90
20658;DHT22;10488;50.846;4.078;2023-07-20T14:40:25;22.60;99.90
20658;DHT22;10488;50.846;4.078;2023-07-20T14:42:51;22.70;99.90
20658;DHT22;10488;50.846;4.078;2023-07-20T14:45:17;22.90;99.90
20658;DHT22;10488;50.846;4.078;2023-07-20T14:47:43;22.30;99.90
20658;DHT22;10488;50.846;4.078;2023-07-20T14:50:09;21.40;99.90
20658;DHT22;10488;50.846;4.078;2023-07-20T14:52:35;21.10;99.90
20658;DHT22;10488;50.846;4.078;2023-07-20T14:55:01;20.50;99.90
20658;DHT22;10488;50.846;4.078;2023-07-20T14:57:26;20.20;99.90
20658;DHT22;10488;50.846;4.078;2023-07-20T14:59:52;19.90;99.90
20658;DHT22;10488;50.846;4.078;2023-07-20T15:02:18;19.60;99.90
20658;DHT22;10488;50.846;4.078;2023-07-20T15:04:48;19.50;99.90
20658;DHT22;10488;50.846;4.078;2023-07-20T15:07:18;19.30;99.90
20658;DHT22;10488;50.846;4.078;2023-07-20T15:09:44;19.10;99.90
20658;DHT22;10488;50.846;4.078;2023-07-20T15:12:10;19.10;99.90
20658;DHT22;10488;50.846;4.078;2023-07-20T15:14:39;18.90;99.90
20658;DHT22;10488;50.846;4.078;2023-07-20T15:17:05;18.60;99.90
20658;DHT22;10488;50.846;4.078;2023-07-20T15:19:30;18.00;99.90
20658;DHT22;10488;50.846;4.078;2023-07-20T15:21:56;18.10;99.90
20658;DHT22;10488;50.846;4.078;2023-07-20T15:24:22;17.70;99.90
20658;DHT22;10488;50.846;4.078;2023-07-20T15:26:47;17.60;99.90
20658;DHT22;10488;50.846;4.078;2023-07-20T15:29:13;17.40;99.90
20658;DHT22;10488;50.846;4.078;2023-07-20T15:31:39;17.20;99.90
20658;DHT22;10488;50.846;4.078;2023-07-20T15:34:04;17.50;99.90
20658;DHT22;10488;50.846;4.078;2023-07-20T15:36:30;17.40;99.90
20658;DHT22;10488;50.846;4.078;2023-07-20T15:38:56;17.60;99.90
20658;DHT22;10488;50.846;4.078;2023-07-20T15:41:22;17.50;99.90
20658;DHT22;10488;50.846;4.078;2023-07-20T15:43:48;17.60;99.90
20658;DHT22;10488;50.846;4.078;2023-07-20T15:48:44;17.00;99.90
20658;DHT22;10488;50.846;4.078;2023-07-20T15:51:10;17.10;99.90
20658;DHT22;10488;50.846;4.078;2023-07-20T15:53:36;17.30;99.90